CYYN

Swift Current Airport

Swift Current, Saskatchewan, Canada
METAR CYYN 241107Z AUTO 28005KT 9SM SCT005 OVC011 01/01 A2992 RMK SLP154
Observed Flight Rules
Sep-24 @ 11:07 UTC (39 minutes ago) Marginal Visual Flight Rules
Wind Visibility Clouds
280° at 5 knots 9 miles
  • Scattered at 500' AGL
  • Overcast at 1,100' AGL
Temperatures Readings
Current 1°C / 34°F
Dewpoint 1°C / 34°F
Humidity 100%
Altimeter 29.92" Hg
Pressure 1015.4 hPa
Elevation 818
METAR CYYN 241107Z AUTO 28005KT 9SM SCT005 OVC011 01/01 A2992 RMK SLP154
Observed Flight Rules
Sep-24 @ 11:07 UTC
(39 minutes ago)
MVFR
Wind Visibility
280° at 5 knots 9 miles
Clouds
  • Scattered at 500' AGL
  • Overcast at 1,100' AGL
Temperature Dewpoint
1°C / 34°F 1°C / 34°F
Humidity Altimeter Pressure
100% 29.92" Hg 1015.4 hPa